Time;durP1;ratioP1;P1;durP2;ratioP2;P2;SDS_P1;SDS_P2;PMS_P1;PMS_P2;Temp;Humidity;BMP_temperature;BMP_pressure;BME280_temperature;BME280_humidity;BME280_pressure;Samples;Min_cycle;Max_cycle;Signal;HPM_P1;HPM_P2
2022/07/10 00:00:02;;;;;;;19.90;6.57;;;;;;;;;;1043938;28;20092;-76
2022/07/10 00:00:33;;;;;;;19.15;6.43;;;;;;;;;;1041801;28;20025;-76
2022/07/10 00:01:03;;;;;;;14.60;6.38;;;;;;;;;;1045576;28;20044;-75
2022/07/10 00:01:34;;;;;;;23.38;9.38;;;;;;;;;;1046158;28;20037;-75
2022/07/10 00:02:04;;;;;;;16.25;5.55;;;;;;;;;;1044736;28;20016;-75
2022/07/10 00:02:35;;;;;;;17.67;7.20;;;;;;;;;;1046052;28;20052;-75
2022/07/10 00:03:05;;;;;;;15.85;6.70;;;;;;;;;;1045843;28;20180;-75
2022/07/10 00:03:36;;;;;;;15.68;6.57;;;;;;;;;;1045052;28;20392;-75
2022/07/10 00:04:07;;;;;;;13.52;6.47;;;;;;;;;;1045728;28;20024;-75
2022/07/10 00:04:37;;;;;;;16.15;5.07;;;;;;;;;;1046022;28;20056;-75
2022/07/10 00:05:08;;;;;;;17.15;5.07;;;;;;;;;;1045770;28;20023;-75
2022/07/10 00:05:39;;;;;;;14.93;6.05;;;;;;;;;;1046037;28;20170;-75
2022/07/10 00:06:09;;;;;;;15.80;5.10;;;;;;;;;;1045798;28;20017;-76
2022/07/10 00:06:42;;;;;;;23.75;7.93;;;;;;;;;;1045011;28;20070;-76
2022/07/10 00:07:13;;;;;;;16.02;6.07;;;;;;;;;;1045337;28;20444;-76
2022/07/10 00:07:43;;;;;;;19.55;7.03;;;;;;;;;;1045737;28;20028;-75
2022/07/10 00:08:14;;;;;;;21.20;7.43;;;;;;;;;;1045577;28;20025;-75
2022/07/10 00:08:44;;;;;;;11.13;4.93;;;;;;;;;;1046134;28;20044;-75
2022/07/10 00:09:15;;;;;;;14.98;5.20;;;;;;;;;;1046259;28;20020;-75
2022/07/10 00:09:46;;;;;;;26.70;7.75;;;;;;;;;;1046427;28;20017;-76
2022/07/10 00:10:17;;;;;;;17.20;6.03;;;;;;;;;;1045710;28;20099;-75
2022/07/10 00:10:47;;;;;;;14.52;5.18;;;;;;;;;;1045526;28;20036;-75
2022/07/10 00:11:18;;;;;;;20.85;5.70;;;;;;;;;;1045614;28;20194;-75
2022/07/10 00:11:48;;;;;;;19.65;5.78;;;;;;;;;;1044663;28;20024;-75
2022/07/10 00:12:19;;;;;;;19.10;5.32;;;;;;;;;;1045381;28;20028;-76
2022/07/10 00:12:52;;;;;;;17.17;5.38;;;;;;;;;;1045650;28;20024;-75
2022/07/10 00:13:23;;;;;;;13.55;4.88;;;;;;;;;;1045245;28;20026;-75
2022/07/10 00:13:53;;;;;;;16.65;5.22;;;;;;;;;;1042813;28;20020;-75
2022/07/10 00:14:24;;;;;;;20.27;6.78;;;;;;;;;;1045977;28;20083;-75
2022/07/10 00:14:54;;;;;;;19.67;5.85;;;;;;;;;;1046002;28;20077;-76
2022/07/10 00:15:25;;;;;;;12.05;5.47;;;;;;;;;;1045598;28;20028;-76
2022/07/10 00:15:55;;;;;;;13.40;6.40;;;;;;;;;;1045214;28;20020;-76
2022/07/10 00:16:26;;;;;;;14.93;6.85;;;;;;;;;;1041759;28;20024;-75
2022/07/10 00:16:57;;;;;;;17.00;6.32;;;;;;;;;;1041544;28;20049;-75
2022/07/10 00:17:27;;;;;;;18.27;5.28;;;;;;;;;;1045583;28;20115;-75
2022/07/10 00:17:58;;;;;;;14.93;6.82;;;;;;;;;;1045962;28;20028;-76
2022/07/10 00:18:28;;;;;;;18.30;6.53;;;;;;;;;;1045988;28;20078;-75
2022/07/10 00:18:59;;;;;;;16.92;5.80;;;;;;;;;;1046069;28;20372;-75
2022/07/10 00:19:29;;;;;;;14.55;5.63;;;;;;;;;;1044517;28;20059;-76
2022/07/10 00:20:00;;;;;;;12.90;5.90;;;;;;;;;;1045826;28;20063;-76
2022/07/10 00:20:30;;;;;;;17.15;5.88;;;;;;;;;;1045536;28;20024;-75
2022/07/10 00:21:01;;;;;;;17.13;6.15;;;;;;;;;;1044452;28;20511;-76
2022/07/10 00:21:31;;;;;;;14.60;6.10;;;;;;;;;;1045550;28;20036;-76
2022/07/10 00:22:02;;;;;;;21.38;6.35;;;;;;;;;;1045120;28;20523;-75
2022/07/10 00:22:34;;;;;;;15.15;7.72;;;;;;;;;;1045485;28;20029;-75
2022/07/10 00:23:05;;;;;;;12.27;4.80;;;;;;;;;;1045206;28;20032;-75
2022/07/10 00:23:35;;;;;;;18.13;5.57;;;;;;;;;;1045480;28;20376;-75
2022/07/10 00:24:06;;;;;;;26.08;6.63;;;;;;;;;;1045703;28;20078;-76
2022/07/10 00:24:36;;;;;;;16.45;4.95;;;;;;;;;;1046112;28;20027;-76
2022/07/10 00:25:08;;;;;;;17.05;6.32;;;;;;;;;;1045961;28;20090;-76
2022/07/10 00:25:38;;;;;;;26.48;8.80;;;;;;;;;;1044737;28;20099;-75
2022/07/10 00:26:09;;;;;;;16.35;7.30;;;;;;;;;;1045623;28;20020;-76
2022/07/10 00:26:39;;;;;;;21.00;5.50;;;;;;;;;;1045607;28;20483;-75
2022/07/10 00:27:10;;;;;;;12.60;5.22;;;;;;;;;;1045747;28;20027;-75
2022/07/10 00:27:41;;;;;;;22.20;6.60;;;;;;;;;;1046251;28;20025;-75
2022/07/10 00:28:11;;;;;;;20.98;6.25;;;;;;;;;;1046087;28;20023;-76
2022/07/10 00:28:41;;;;;;;17.13;6.15;;;;;;;;;;1044453;28;20528;-75
2022/07/10 00:29:12;;;;;;;31.77;7.75;;;;;;;;;;1045794;28;20016;-75
2022/07/10 00:29:43;;;;;;;24.45;6.30;;;;;;;;;;1045972;28;20034;-75
2022/07/10 00:30:13;;;;;;;23.00;6.05;;;;;;;;;;1045644;28;20031;-75
2022/07/10 00:30:44;;;;;;;12.38;5.13;;;;;;;;;;1045926;28;20025;-76
2022/07/10 00:31:14;;;;;;;24.48;6.75;;;;;;;;;;1046293;28;20025;-76
2022/07/10 00:31:45;;;;;;;16.98;7.05;;;;;;;;;;1045730;28;20375;-76
2022/07/10 00:32:15;;;;;;;18.40;6.95;;;;;;;;;;1045764;28;20103;-76
2022/07/10 00:32:46;;;;;;;13.15;6.82;;;;;;;;;;1046330;28;20028;-75
2022/07/10 00:33:16;;;;;;;18.00;5.25;;;;;;;;;;1046220;28;20020;-75
2022/07/10 00:33:48;;;;;;;19.58;7.82;;;;;;;;;;1044679;28;20451;-76
2022/07/10 00:34:18;;;;;;;17.63;6.75;;;;;;;;;;1041122;28;20072;-75
2022/07/10 00:34:49;;;;;;;16.42;4.93;;;;;;;;;;1037228;28;20029;-75
2022/07/10 00:35:19;;;;;;;17.90;6.10;;;;;;;;;;1037543;28;20021;-75
2022/07/10 00:35:50;;;;;;;14.40;6.22;;;;;;;;;;1033724;28;20030;-75
2022/07/10 00:36:20;;;;;;;13.90;6.07;;;;;;;;;;1037717;28;20476;-75
2022/07/10 00:36:51;;;;;;;20.17;7.10;;;;;;;;;;1041731;28;20027;-76
2022/07/10 00:37:21;;;;;;;15.45;5.70;;;;;;;;;;1046544;28;20531;-75
2022/07/10 00:37:52;;;;;;;13.15;6.05;;;;;;;;;;1047183;28;20028;-75
2022/07/10 00:38:22;;;;;;;18.65;6.53;;;;;;;;;;1044777;28;20017;-76
2022/07/10 00:38:53;;;;;;;15.43;6.18;;;;;;;;;;1045806;28;20028;-76
2022/07/10 00:39:23;;;;;;;17.83;6.05;;;;;;;;;;1045840;28;20027;-76
2022/07/10 00:39:54;;;;;;;15.63;6.93;;;;;;;;;;1045893;28;20023;-75
2022/07/10 00:40:25;;;;;;;15.13;5.78;;;;;;;;;;1045815;28;20021;-76
2022/07/10 00:40:55;;;;;;;20.77;5.25;;;;;;;;;;1046865;28;20024;-76
2022/07/10 00:41:25;;;;;;;16.27;5.13;;;;;;;;;;1044686;28;20566;-75
2022/07/10 00:42:06;;;;;;;22.95;6.00;;;;;;;;;;1045819;28;20013;-75
2022/07/10 00:42:36;;;;;;;13.73;4.93;;;;;;;;;;1045358;28;20028;-76
2022/07/10 00:43:10;;;;;;;26.83;6.38;;;;;;;;;;1045490;28;20020;-75
2022/07/10 00:43:57;;;;;;;21.33;5.63;;;;;;;;;;1043293;28;20040;-75
2022/07/10 00:44:28;;;;;;;22.23;6.43;;;;;;;;;;1046169;28;20071;-76
2022/07/10 00:44:58;;;;;;;20.83;6.45;;;;;;;;;;1046539;28;20016;-76
2022/07/10 00:45:29;;;;;;;17.67;6.43;;;;;;;;;;1045979;28;20104;-75
2022/07/10 00:45:59;;;;;;;14.55;5.75;;;;;;;;;;1046231;28;20021;-75
2022/07/10 00:46:30;;;;;;;13.55;5.18;;;;;;;;;;1046287;28;20024;-76
2022/07/10 00:47:01;;;;;;;14.15;5.35;;;;;;;;;;1046257;28;20021;-75
2022/07/10 00:47:32;;;;;;;12.43;6.07;;;;;;;;;;1044875;28;20551;-76
2022/07/10 00:48:03;;;;;;;8.20;4.78;;;;;;;;;;1045768;28;20421;-75
2022/07/10 00:48:33;;;;;;;19.02;4.72;;;;;;;;;;1045896;28;20491;-75
2022/07/10 00:49:04;;;;;;;16.48;5.20;;;;;;;;;;1044326;28;20027;-75
2022/07/10 00:49:35;;;;;;;11.57;4.57;;;;;;;;;;1045549;28;20465;-75
2022/07/10 00:50:06;;;;;;;13.30;4.70;;;;;;;;;;1041129;28;20032;-75
2022/07/10 00:50:38;;;;;;;15.70;5.57;;;;;;;;;;1041950;28;20048;-76
2022/07/10 00:51:08;;;;;;;16.30;6.30;;;;;;;;;;1045762;28;20028;-75
2022/07/10 00:51:39;;;;;;;12.82;4.25;;;;;;;;;;1045943;28;20016;-76
2022/07/10 00:52:14;;;;;;;17.67;5.22;;;;;;;;;;1045816;28;20066;-76
2022/07/10 00:52:46;;;;;;;16.60;6.45;;;;;;;;;;1039858;28;20026;-76
2022/07/10 00:53:16;;;;;;;15.95;5.40;;;;;;;;;;1040252;28;20026;-76
2022/07/10 00:53:48;;;;;;;15.00;5.68;;;;;;;;;;1037318;28;20026;-75
2022/07/10 00:54:18;;;;;;;12.13;5.35;;;;;;;;;;1034460;28;20162;-76
2022/07/10 00:54:52;;;;;;;14.20;4.85;;;;;;;;;;1037495;28;20026;-76
2022/07/10 00:55:23;;;;;;;16.50;5.10;;;;;;;;;;1041564;28;20071;-76
2022/07/10 00:55:53;;;;;;;14.32;5.30;;;;;;;;;;1045670;28;20621;-76
2022/07/10 00:56:24;;;;;;;11.20;4.50;;;;;;;;;;1045705;28;20029;-75
2022/07/10 00:56:55;;;;;;;14.30;4.75;;;;;;;;;;1045295;28;20055;-76
2022/07/10 00:57:25;;;;;;;15.95;4.53;;;;;;;;;;1045650;28;20024;-76
2022/07/10 00:57:56;;;;;;;9.75;3.97;;;;;;;;;;1045341;28;20028;-76
2022/07/10 00:58:26;;;;;;;16.33;5.22;;;;;;;;;;1045478;28;20178;-76
2022/07/10 00:58:57;;;;;;;20.02;5.82;;;;;;;;;;1044262;28;20068;-75
2022/07/10 00:59:28;;;;;;;11.10;4.38;;;;;;;;;;1044662;28;20504;-76
2022/07/10 00:59:58;;;;;;;8.77;3.97;;;;;;;;;;1046245;28;20464;-76
2022/07/10 01:00:29;;;;;;;13.63;5.53;;;;;;;;;;1046104;28;20024;-76
2022/07/10 01:01:01;;;;;;;16.08;5.60;;;;;;;;;;1044826;28;20468;-76
2022/07/10 01:01:32;;;;;;;7.18;4.15;;;;;;;;;;1045792;28;20071;-76
2022/07/10 01:02:03;;;;;;;12.73;5.95;;;;;;;;;;1045754;28;20115;-75
2022/07/10 01:02:34;;;;;;;20.33;4.32;;;;;;;;;;1045772;28;20070;-75
2022/07/10 01:03:05;;;;;;;12.48;4.32;;;;;;;;;;1045221;28;20072;-76
2022/07/10 01:03:35;;;;;;;10.70;4.72;;;;;;;;;;1043575;28;20048;-76
2022/07/10 01:04:06;;;;;;;18.52;5.15;;;;;;;;;;1043473;28;20009;-76
2022/07/10 01:04:37;;;;;;;15.35;5.47;;;;;;;;;;1040965;28;20366;-76
2022/07/10 01:05:07;;;;;;;15.88;4.38;;;;;;;;;;1037015;28;20072;-76
2022/07/10 01:05:38;;;;;;;15.50;4.70;;;;;;;;;;1035588;28;20116;-76
2022/07/10 01:06:08;;;;;;;23.35;5.03;;;;;;;;;;1033160;28;20028;-76
2022/07/10 01:06:39;;;;;;;14.68;4.05;;;;;;;;;;1039753;28;20440;-76
2022/07/10 01:07:09;;;;;;;17.08;4.28;;;;;;;;;;1043669;28;20028;-76
2022/07/10 01:07:40;;;;;;;15.65;5.47;;;;;;;;;;1043699;28;20021;-75
2022/07/10 01:08:10;;;;;;;11.15;4.07;;;;;;;;;;1045739;28;20024;-75
2022/07/10 01:08:42;;;;;;;12.15;4.22;;;;;;;;;;1045980;28;20032;-75
2022/07/10 01:09:12;;;;;;;13.15;4.93;;;;;;;;;;1044313;28;20567;-75
2022/07/10 01:09:43;;;;;;;12.82;4.93;;;;;;;;;;1045550;28;20012;-75
2022/07/10 01:10:13;;;;;;;20.70;5.25;;;;;;;;;;1046106;28;20032;-75
2022/07/10 01:10:45;;;;;;;14.18;4.95;;;;;;;;;;1044888;28;20021;-75
2022/07/10 01:11:16;;;;;;;17.95;5.10;;;;;;;;;;1045174;28;20083;-75
2022/07/10 01:11:46;;;;;;;15.43;4.65;;;;;;;;;;1043575;28;20028;-75
2022/07/10 01:12:17;;;;;;;16.88;4.55;;;;;;;;;;1043553;28;20037;-75
2022/07/10 01:12:48;;;;;;;22.25;7.15;;;;;;;;;;1043630;28;20115;-75
2022/07/10 01:13:18;;;;;;;19.13;5.75;;;;;;;;;;1045820;28;20028;-75
2022/07/10 01:13:49;;;;;;;15.25;4.43;;;;;;;;;;1045986;28;20021;-76
2022/07/10 01:14:19;;;;;;;11.60;5.05;;;;;;;;;;1045557;28;20009;-75
2022/07/10 01:14:50;;;;;;;18.25;4.88;;;;;;;;;;1045765;28;20021;-76
2022/07/10 01:15:20;;;;;;;13.32;4.80;;;;;;;;;;1045876;28;20032;-75
2022/07/10 01:15:52;;;;;;;15.48;4.30;;;;;;;;;;1046283;28;20024;-76
2022/07/10 01:16:22;;;;;;;12.80;6.05;;;;;;;;;;1044990;28;20418;-76
2022/07/10 01:16:53;;;;;;;15.52;4.72;;;;;;;;;;1045865;28;20112;-76
2022/07/10 01:17:24;;;;;;;15.00;3.70;;;;;;;;;;1045784;28;20021;-76
2022/07/10 01:17:55;;;;;;;20.92;6.03;;;;;;;;;;1045078;28;20025;-76
2022/07/10 01:18:26;;;;;;;24.42;6.25;;;;;;;;;;1045440;28;20076;-75
2022/07/10 01:18:57;;;;;;;21.58;5.30;;;;;;;;;;1045909;28;20013;-75
2022/07/10 01:19:27;;;;;;;19.90;7.55;;;;;;;;;;1046627;28;20080;-75
2022/07/10 01:19:58;;;;;;;12.43;5.20;;;;;;;;;;1046733;28;20031;-76
2022/07/10 01:20:34;;;;;;;22.10;4.50;;;;;;;;;;1046402;28;20458;-75
2022/07/10 01:21:05;;;;;;;14.07;4.85;;;;;;;;;;1045997;28;20055;-75
2022/07/10 01:21:36;;;;;;;14.27;5.72;;;;;;;;;;1046330;28;20034;-75
2022/07/10 01:22:07;;;;;;;24.33;5.95;;;;;;;;;;1046084;28;20029;-76
2022/07/10 01:22:37;;;;;;;14.93;5.85;;;;;;;;;;1047274;28;20416;-76
2022/07/10 01:23:08;;;;;;;16.27;5.30;;;;;;;;;;1046358;28;20115;-75
2022/07/10 01:23:38;;;;;;;24.75;7.47;;;;;;;;;;1046624;28;20040;-76
2022/07/10 01:24:10;;;;;;;27.70;8.60;;;;;;;;;;1046400;28;20017;-76
2022/07/10 01:24:40;;;;;;;28.88;8.90;;;;;;;;;;1046412;28;20027;-76
2022/07/10 01:25:11;;;;;;;26.75;7.70;;;;;;;;;;1046500;28;20033;-76
2022/07/10 01:25:41;;;;;;;36.85;8.55;;;;;;;;;;1046732;28;20095;-75
2022/07/10 01:26:12;;;;;;;30.25;7.25;;;;;;;;;;1046381;28;20024;-75
2022/07/10 01:26:43;;;;;;;24.90;7.10;;;;;;;;;;1046312;28;20107;-75
2022/07/10 01:27:13;;;;;;;22.40;6.82;;;;;;;;;;1046041;28;20021;-75
2022/07/10 01:27:44;;;;;;;23.02;8.07;;;;;;;;;;1046776;28;20384;-75
2022/07/10 01:28:16;;;;;;;10.45;4.65;;;;;;;;;;1046735;28;20024;-75
2022/07/10 01:28:48;;;;;;;21.90;7.15;;;;;;;;;;1044976;28;20062;-76
2022/07/10 01:29:19;;;;;;;23.40;7.38;;;;;;;;;;1046917;28;20024;-76
2022/07/10 01:29:51;;;;;;;17.42;7.32;;;;;;;;;;1047388;28;20028;-75
2022/07/10 01:30:21;;;;;;;24.38;7.05;;;;;;;;;;1046065;28;20025;-75
2022/07/10 01:30:54;;;;;;;20.25;7.40;;;;;;;;;;1045167;28;20024;-76
2022/07/10 01:31:26;;;;;;;16.80;6.80;;;;;;;;;;1046271;28;20545;-76
2022/07/10 01:31:56;;;;;;;29.88;6.88;;;;;;;;;;1046198;28;20009;-76
2022/07/10 01:32:35;;;;;;;16.27;6.82;;;;;;;;;;1046473;28;20029;-76
2022/07/10 01:33:06;;;;;;;24.98;7.30;;;;;;;;;;1045594;28;20111;-76
2022/07/10 01:33:36;;;;;;;23.65;8.52;;;;;;;;;;1046613;28;20024;-76
2022/07/10 01:34:10;;;;;;;18.48;7.05;;;;;;;;;;1045916;28;20105;-75
2022/07/10 01:34:41;;;;;;;28.35;6.45;;;;;;;;;;1044358;28;20059;-75
2022/07/10 01:35:11;;;;;;;23.38;7.32;;;;;;;;;;1044255;28;20376;-75
2022/07/10 01:35:42;;;;;;;18.40;7.40;;;;;;;;;;1044401;28;20101;-75
2022/07/10 01:36:13;;;;;;;29.15;9.25;;;;;;;;;;1046373;28;20042;-75
2022/07/10 01:36:44;;;;;;;25.02;8.15;;;;;;;;;;1042310;28;20036;-75
2022/07/10 01:37:14;;;;;;;24.95;9.98;;;;;;;;;;1041916;28;20373;-75
2022/07/10 01:37:45;;;;;;;23.20;8.82;;;;;;;;;;1046171;28;20025;-75
2022/07/10 01:38:15;;;;;;;22.52;6.20;;;;;;;;;;1047307;28;20111;-76
2022/07/10 01:38:46;;;;;;;32.17;7.55;;;;;;;;;;1046309;28;20503;-75
2022/07/10 01:39:16;;;;;;;25.02;7.78;;;;;;;;;;1046144;28;20013;-75
2022/07/10 01:39:47;;;;;;;33.47;11.63;;;;;;;;;;1046961;28;20476;-75
2022/07/10 01:40:18;;;;;;;20.90;6.80;;;;;;;;;;1046711;28;20056;-75
2022/07/10 01:40:48;;;;;;;29.52;8.52;;;;;;;;;;1046492;28;20384;-75
2022/07/10 01:41:19;;;;;;;19.33;7.55;;;;;;;;;;1045518;28;20099;-76
2022/07/10 01:41:49;;;;;;;28.35;7.10;;;;;;;;;;1046781;28;20025;-75
2022/07/10 01:42:19;;;;;;;39.05;7.85;;;;;;;;;;1043400;28;20075;-75
2022/07/10 01:42:50;;;;;;;14.93;5.90;;;;;;;;;;1046388;28;20028;-76
2022/07/10 01:43:20;;;;;;;28.20;6.70;;;;;;;;;;1045846;28;20024;-75
2022/07/10 01:43:51;;;;;;;26.92;9.10;;;;;;;;;;1043500;28;20112;-75
2022/07/10 01:44:22;;;;;;;18.05;7.65;;;;;;;;;;1046416;28;20021;-75
2022/07/10 01:44:53;;;;;;;22.67;6.68;;;;;;;;;;1046093;28;20111;-75
2022/07/10 01:45:24;;;;;;;27.45;6.85;;;;;;;;;;1042160;28;20022;-75
2022/07/10 01:45:54;;;;;;;24.75;8.23;;;;;;;;;;1046163;28;20025;-76
2022/07/10 01:46:25;;;;;;;23.42;7.22;;;;;;;;;;1045412;28;20028;-76
2022/07/10 01:46:56;;;;;;;23.02;8.07;;;;;;;;;;1045433;28;20021;-75
2022/07/10 01:47:27;;;;;;;19.27;8.07;;;;;;;;;;1046326;28;20017;-75
2022/07/10 01:47:58;;;;;;;21.30;7.55;;;;;;;;;;1044681;28;20029;-75
2022/07/10 01:48:29;;;;;;;25.60;6.65;;;;;;;;;;1046419;28;20025;-75
2022/07/10 01:49:00;;;;;;;20.55;7.68;;;;;;;;;;1046720;28;20028;-75
2022/07/10 01:49:31;;;;;;;16.50;7.30;;;;;;;;;;1046435;28;20021;-76
2022/07/10 01:50:02;;;;;;;19.48;6.82;;;;;;;;;;1046541;28;20074;-75
2022/07/10 01:50:32;;;;;;;16.02;6.43;;;;;;;;;;1045652;28;20487;-75
2022/07/10 01:51:03;;;;;;;30.10;8.05;;;;;;;;;;1046297;28;20021;-76
2022/07/10 01:51:34;;;;;;;19.00;6.18;;;;;;;;;;1045788;28;20024;-75
2022/07/10 01:52:04;;;;;;;26.17;6.63;;;;;;;;;;1046738;28;20074;-76
2022/07/10 01:52:35;;;;;;;19.48;7.20;;;;;;;;;;1047086;28;20024;-76
2022/07/10 01:53:06;;;;;;;20.45;7.50;;;;;;;;;;1045334;28;20027;-76
2022/07/10 01:53:36;;;;;;;18.52;6.85;;;;;;;;;;1046523;28;20033;-75
2022/07/10 01:54:07;;;;;;;20.80;7.50;;;;;;;;;;1046291;28;20021;-75
2022/07/10 01:54:37;;;;;;;17.90;5.57;;;;;;;;;;1046968;28;20494;-76
2022/07/10 01:55:08;;;;;;;18.38;6.68;;;;;;;;;;1046759;28;20056;-75
2022/07/10 01:55:39;;;;;;;25.90;6.15;;;;;;;;;;1045773;28;20028;-75
2022/07/10 01:56:10;;;;;;;25.30;6.78;;;;;;;;;;1045239;28;20048;-75
2022/07/10 01:56:41;;;;;;;14.68;6.72;;;;;;;;;;1046532;28;20028;-75
2022/07/10 01:57:11;;;;;;;22.17;7.47;;;;;;;;;;1045702;28;20021;-75
2022/07/10 01:57:42;;;;;;;19.95;6.75;;;;;;;;;;1046498;28;20032;-75
2022/07/10 01:58:13;;;;;;;11.25;5.45;;;;;;;;;;1045926;28;20406;-75
2022/07/10 01:58:43;;;;;;;25.10;6.43;;;;;;;;;;1045933;28;20499;-75
2022/07/10 01:59:14;;;;;;;29.17;7.82;;;;;;;;;;1046136;28;20013;-75
2022/07/10 01:59:44;;;;;;;16.55;8.32;;;;;;;;;;1046704;28;20071;-75
2022/07/10 02:00:15;;;;;;;19.85;7.97;;;;;;;;;;1046416;28;20495;-75
2022/07/10 02:00:45;;;;;;;18.20;6.60;;;;;;;;;;1046867;28;20052;-75
2022/07/10 02:01:16;;;;;;;19.02;6.15;;;;;;;;;;1046225;28;20507;-75
2022/07/10 02:01:46;;;;;;;18.55;6.00;;;;;;;;;;1046531;28;20124;-76
2022/07/10 02:02:17;;;;;;;19.52;6.78;;;;;;;;;;1046458;28;20111;-75
2022/07/10 02:04:40;;;;;;;17.80;5.32;;;;;;;;;;1046950;28;20079;-75
2022/07/10 02:04:42;;;;;;;13.43;5.60;;;;;;;;;;1046817;28;21453;-75
2022/07/10 02:05:12;;;;;;;16.98;5.93;;;;;;;;;;1047532;28;20228;-76
2022/07/10 02:05:43;;;;;;;18.60;6.15;;;;;;;;;;1046138;28;20016;-76
2022/07/10 02:06:13;;;;;;;14.65;5.88;;;;;;;;;;1043843;28;20104;-76
2022/07/10 02:06:44;;;;;;;16.50;5.90;;;;;;;;;;1044389;28;20411;-75
2022/07/10 02:07:16;;;;;;;18.00;5.97;;;;;;;;;;1044063;28;20124;-75
2022/07/10 02:07:46;;;;;;;16.35;5.88;;;;;;;;;;1045921;28;20388;-75
2022/07/10 02:08:17;;;;;;;20.00;7.03;;;;;;;;;;1045895;28;20029;-75
2022/07/10 02:08:47;;;;;;;16.35;6.70;;;;;;;;;;1045144;28;20119;-76
2022/07/10 02:09:19;;;;;;;28.45;8.85;;;;;;;;;;1044066;28;20025;-76
2022/07/10 02:09:49;;;;;;;14.75;5.63;;;;;;;;;;1044486;28;20373;-75
2022/07/10 02:10:20;;;;;;;19.23;7.57;;;;;;;;;;1045944;28;20024;-75
2022/07/10 02:10:50;;;;;;;25.95;6.78;;;;;;;;;;1046036;28;20445;-75
2022/07/10 02:11:21;;;;;;;12.27;5.38;;;;;;;;;;1045936;28;20043;-76
2022/07/10 02:11:51;;;;;;;25.48;6.22;;;;;;;;;;1046581;28;20025;-76
2022/07/10 02:12:22;;;;;;;21.77;7.32;;;;;;;;;;1046688;28;20476;-75
2022/07/10 02:12:52;;;;;;;20.38;6.43;;;;;;;;;;1046752;28;20066;-76
2022/07/10 02:13:25;;;;;;;28.20;5.93;;;;;;;;;;1046486;28;20031;-76
2022/07/10 02:13:55;;;;;;;21.83;6.05;;;;;;;;;;1045259;28;20569;-76
2022/07/10 02:14:26;;;;;;;17.85;6.30;;;;;;;;;;1045750;28;20040;-75
2022/07/10 02:14:59;;;;;;;24.17;6.10;;;;;;;;;;1046067;28;20379;-74
2022/07/10 02:15:29;;;;;;;17.42;6.55;;;;;;;;;;1045829;28;20024;-74
2022/07/10 02:16:00;;;;;;;12.77;4.43;;;;;;;;;;1044349;28;20024;-76
2022/07/10 02:16:30;;;;;;;18.85;6.22;;;;;;;;;;1045702;28;20025;-75
2022/07/10 02:17:01;;;;;;;16.48;6.03;;;;;;;;;;1046470;28;20025;-75
2022/07/10 02:17:32;;;;;;;11.88;5.05;;;;;;;;;;1046839;28;20033;-75
2022/07/10 02:18:02;;;;;;;20.88;5.63;;;;;;;;;;1046755;28;20462;-75
2022/07/10 02:18:33;;;;;;;12.98;5.95;;;;;;;;;;1046694;28;20476;-75
2022/07/10 02:19:03;;;;;;;17.67;6.18;;;;;;;;;;1046226;28;20075;-75
2022/07/10 02:19:34;;;;;;;14.93;5.10;;;;;;;;;;1046455;28;20025;-75
2022/07/10 02:20:05;;;;;;;21.50;5.82;;;;;;;;;;1047519;28;20063;-76
2022/07/10 02:20:36;;;;;;;16.60;5.28;;;;;;;;;;1045912;28;20494;-75
2022/07/10 02:21:07;;;;;;;13.40;5.70;;;;;;;;;;1045843;28;20057;-75
2022/07/10 02:21:37;;;;;;;12.40;4.00;;;;;;;;;;1046168;28;20214;-75
2022/07/10 02:22:08;;;;;;;17.25;5.30;;;;;;;;;;1044874;28;20024;-75
2022/07/10 02:22:38;;;;;;;15.95;4.63;;;;;;;;;;1046365;28;20020;-75
2022/07/10 02:23:09;;;;;;;14.27;5.20;;;;;;;;;;1046348;28;20035;-75
2022/07/10 02:23:40;;;;;;;25.92;5.57;;;;;;;;;;1044294;28;20021;-76
2022/07/10 02:24:11;;;;;;;15.23;5.40;;;;;;;;;;1044008;28;20086;-75
2022/07/10 02:24:41;;;;;;;21.55;4.82;;;;;;;;;;1044486;28;20519;-75
2022/07/10 02:25:12;;;;;;;13.27;4.82;;;;;;;;;;1045974;28;20028;-75
2022/07/10 02:25:43;;;;;;;16.63;5.65;;;;;;;;;;1046396;28;20107;-75
2022/07/10 02:26:13;;;;;;;21.83;5.82;;;;;;;;;;1046065;28;20052;-76
2022/07/10 02:26:44;;;;;;;18.33;6.47;;;;;;;;;;1046240;28;20020;-75
2022/07/10 02:27:14;;;;;;;9.35;4.25;;;;;;;;;;1045362;28;20622;-75
2022/07/10 02:27:45;;;;;;;14.35;4.70;;;;;;;;;;1046543;28;20028;-75
2022/07/10 02:28:15;;;;;;;13.73;4.03;;;;;;;;;;1042903;28;20028;-75
2022/07/10 02:28:46;;;;;;;19.55;5.20;;;;;;;;;;1045908;28;20017;-75
2022/07/10 02:29:17;;;;;;;14.85;5.63;;;;;;;;;;1043063;28;20017;-75
2022/07/10 02:29:47;;;;;;;14.82;4.70;;;;;;;;;;1044522;28;20032;-75
2022/07/10 02:30:18;;;;;;;14.45;4.10;;;;;;;;;;1045749;28;20428;-75
2022/07/10 02:30:48;;;;;;;19.42;5.30;;;;;;;;;;1045940;28;20100;-75
2022/07/10 02:31:19;;;;;;;13.75;4.43;;;;;;;;;;1046348;28;20056;-75
2022/07/10 02:31:49;;;;;;;11.90;3.33;;;;;;;;;;1046926;28;20025;-75
2022/07/10 02:32:20;;;;;;;9.00;3.72;;;;;;;;;;1046769;28;20027;-75
2022/07/10 02:32:50;;;;;;;15.10;5.13;;;;;;;;;;1047118;28;20476;-75
2022/07/10 02:33:21;;;;;;;13.52;4.57;;;;;;;;;;1045859;28;20028;-75
2022/07/10 02:33:51;;;;;;;10.23;4.10;;;;;;;;;;1046075;28;20021;-74
2022/07/10 02:34:22;;;;;;;9.60;4.75;;;;;;;;;;1046157;28;20191;-75
2022/07/10 02:34:53;;;;;;;16.02;4.25;;;;;;;;;;1046650;28;20112;-75
2022/07/10 02:35:23;;;;;;;11.55;3.83;;;;;;;;;;1046782;28;20035;-75
2022/07/10 02:35:54;;;;;;;8.98;3.45;;;;;;;;;;1046477;28;20471;-75
2022/07/10 02:36:24;;;;;;;11.40;4.45;;;;;;;;;;1046225;28;20464;-76
2022/07/10 02:36:55;;;;;;;7.00;2.70;;;;;;;;;;1046205;28;20029;-75
2022/07/10 02:37:25;;;;;;;9.43;3.38;;;;;;;;;;1046093;28;20112;-75
2022/07/10 02:37:56;;;;;;;10.90;3.10;;;;;;;;;;1046839;28;20028;-75
2022/07/10 02:38:27;;;;;;;5.53;2.78;;;;;;;;;;1045896;28;20021;-75
2022/07/10 02:38:57;;;;;;;9.05;3.17;;;;;;;;;;1046313;28;20025;-76
2022/07/10 02:39:28;;;;;;;6.95;3.00;;;;;;;;;;1046718;28;20028;-75
2022/07/10 02:39:58;;;;;;;9.30;3.13;;;;;;;;;;1046276;28;20028;-75
2022/07/10 02:40:29;;;;;;;21.02;4.15;;;;;;;;;;1046104;28;20028;-75
2022/07/10 02:40:59;;;;;;;10.40;2.88;;;;;;;;;;1043863;28;20021;-75
2022/07/10 02:41:30;;;;;;;10.68;2.75;;;;;;;;;;1044081;28;20573;-75
2022/07/10 02:42:00;;;;;;;12.73;2.70;;;;;;;;;;1044111;28;20034;-75
2022/07/10 02:42:31;;;;;;;11.93;3.53;;;;;;;;;;1042144;28;20492;-75
2022/07/10 02:43:01;;;;;;;7.63;2.95;;;;;;;;;;1045693;28;20012;-75
2022/07/10 02:43:32;;;;;;;8.55;2.35;;;;;;;;;;1046036;28;20028;-74
2022/07/10 02:44:03;;;;;;;7.03;3.05;;;;;;;;;;1041503;28;20031;-75
2022/07/10 02:44:33;;;;;;;7.43;2.13;;;;;;;;;;1046342;28;20016;-75
2022/07/10 02:45:04;;;;;;;11.32;3.17;;;;;;;;;;1046208;28;20056;-74
2022/07/10 02:45:34;;;;;;;4.05;2.13;;;;;;;;;;1046051;28;20399;-75
2022/07/10 02:46:05;;;;;;;8.27;1.98;;;;;;;;;;1045745;28;20021;-75
2022/07/10 02:46:35;;;;;;;12.07;2.85;;;;;;;;;;1046567;28;20396;-75
2022/07/10 02:47:06;;;;;;;4.97;2.38;;;;;;;;;;1046585;28;20021;-75
2022/07/10 02:47:36;;;;;;;12.93;3.00;;;;;;;;;;1046783;28;20516;-75
2022/07/10 02:48:07;;;;;;;15.05;2.88;;;;;;;;;;1046519;28;20024;-75
2022/07/10 02:48:38;;;;;;;6.93;2.35;;;;;;;;;;1046348;28;20024;-75
2022/07/10 02:49:08;;;;;;;4.75;1.95;;;;;;;;;;1046118;28;20476;-75
2022/07/10 02:49:39;;;;;;;8.05;3.13;;;;;;;;;;1046604;28;20024;-75
2022/07/10 02:50:09;;;;;;;5.68;2.83;;;;;;;;;;1046477;28;20021;-75
2022/07/10 02:50:40;;;;;;;8.00;3.20;;;;;;;;;;1046380;28;20162;-75
2022/07/10 02:51:10;;;;;;;10.10;2.85;;;;;;;;;;1045971;28;20027;-74
2022/07/10 02:51:41;;;;;;;6.20;2.65;;;;;;;;;;1045998;28;20075;-75
2022/07/10 02:52:11;;;;;;;10.90;3.17;;;;;;;;;;1045703;28;20021;-74
2022/07/10 02:52:42;;;;;;;11.23;3.10;;;;;;;;;;1046217;28;20056;-74
2022/07/10 02:53:12;;;;;;;10.00;3.08;;;;;;;;;;1045060;28;20111;-75
2022/07/10 02:53:43;;;;;;;7.72;3.00;;;;;;;;;;1046433;28;20043;-75
2022/07/10 02:54:13;;;;;;;6.40;2.72;;;;;;;;;;1045961;28;20062;-75
2022/07/10 02:54:44;;;;;;;8.30;3.28;;;;;;;;;;1045861;28;20024;-75
2022/07/10 02:55:14;;;;;;;6.70;2.47;;;;;;;;;;1045586;28;20036;-75
2022/07/10 02:55:45;;;;;;;6.13;3.05;;;;;;;;;;1043187;28;20094;-75
2022/07/10 02:56:15;;;;;;;7.68;2.83;;;;;;;;;;1043494;28;20493;-75
2022/07/10 02:56:46;;;;;;;5.10;2.92;;;;;;;;;;1044224;28;20083;-75
2022/07/10 02:57:16;;;;;;;10.15;3.30;;;;;;;;;;1044756;28;20483;-75
2022/07/10 02:57:47;;;;;;;10.27;2.95;;;;;;;;;;1045845;28;20025;-74
2022/07/10 02:58:19;;;;;;;13.77;3.58;;;;;;;;;;1046466;28;20077;-75
2022/07/10 02:58:49;;;;;;;10.60;3.97;;;;;;;;;;1045187;28;20052;-75
2022/07/10 02:59:20;;;;;;;11.25;3.55;;;;;;;;;;1042181;28;20504;-75
2022/07/10 02:59:51;;;;;;;12.82;3.63;;;;;;;;;;1044186;28;20035;-75
2022/07/10 03:00:21;;;;;;;14.85;3.50;;;;;;;;;;1042817;28;20409;-75
2022/07/10 03:00:52;;;;;;;9.70;3.05;;;;;;;;;;1044740;28;20025;-75
2022/07/10 03:01:23;;;;;;;12.23;2.80;;;;;;;;;;1046127;28;20116;-75
2022/07/10 03:01:53;;;;;;;11.73;4.22;;;;;;;;;;1046233;28;20017;-75
2022/07/10 03:02:24;;;;;;;9.75;3.17;;;;;;;;;;1045040;28;20024;-76
2022/07/10 03:02:55;;;;;;;18.92;4.53;;;;;;;;;;1046155;28;20020;-75
2022/07/10 03:03:25;;;;;;;10.77;2.95;;;;;;;;;;1045639;28;20032;-75